АеродромСадржај TAF прогнозе
LYBETAF LYBE 220500Z 2206/2306 08005KT CAVOK TX27/2213Z TN10/2305Z TEMPO 2206/2207 3000 BR TEMPO 2304/2306 4000 BR=
LYBTTAF LYBT 220500Z 2206/2306 08004KT 3000 BR NSC TX27/2213Z TN08/2304Z BECMG 2206/2208 8000 NSW TEMPO 2303/2306 2000 BR=
LYKVTAF LYKV 220500Z 2206/2306 VRB02KT CAVOK TX27/2213Z TN04/2305Z TEMPO 2206/2207 3000 BR TEMPO 2303/2306 3000 BR=
LYNITAF LYNI 220500Z 2206/2306 10005KT CAVOK TX28/2213Z TN08/2305Z=
LYVRTAF AMD LYVR 211600Z 2116/2212 CNL=
LYUZTAF LYUZ 220500Z 2206/2306 VRB02KT CAVOK TX26/2213Z TN09/2305Z=
LYPGTAF LYPG 220500Z 2206/2306 15006KT CAVOK TX27/2213Z TN11/2305Z=
LYTVTAF LYTV 220500Z 2206/2306 VRB02KT CAVOK TX25/2212Z TN09/2303Z=

Подаци учитани у: 2019-10-22 06:18:44 UTC

METAR, TAF, AIRMET, GAMET, SIGMET

Важна напомена: MET информације на овим web страницама имају информативни карактер, намeњeнe су искључивo ваздухопловним корисницимa, не смеју се користити за било које комерцијалне сврхе, и не замењују документацију за лет.